sensor_id;sensor_type;location;lat;lon;timestamp;temperature;humidity
12833;DHT22;6483;51.310;4.462;2023-06-22T04:34:44;24.90;1.00
12833;DHT22;6483;51.310;4.462;2023-06-22T04:37:09;16.20;99.90
12833;DHT22;6483;51.310;4.462;2023-06-22T04:39:44;15.90;99.90
12833;DHT22;6483;51.310;4.462;2023-06-22T04:42:11;16.00;99.90
12833;DHT22;6483;51.310;4.462;2023-06-22T04:44:40;16.00;99.90
12833;DHT22;6483;51.310;4.462;2023-06-22T04:47:08;16.10;99.90
12833;DHT22;6483;51.310;4.462;2023-06-22T04:49:34;16.10;99.90
12833;DHT22;6483;51.310;4.462;2023-06-22T04:52:10;16.20;99.90
12833;DHT22;6483;51.310;4.462;2023-06-22T04:54:42;16.30;99.90
12833;DHT22;6483;51.310;4.462;2023-06-22T04:57:16;16.40;99.90
12833;DHT22;6483;51.310;4.462;2023-06-22T04:59:42;16.40;99.90
12833;DHT22;6483;51.310;4.462;2023-06-22T05:02:08;16.60;99.90
12833;DHT22;6483;51.310;4.462;2023-06-22T05:04:34;16.80;99.90
12833;DHT22;6483;51.310;4.462;2023-06-22T05:07:07;17.00;99.90
12833;DHT22;6483;51.310;4.462;2023-06-22T05:09:36;17.00;99.90
12833;DHT22;6483;51.310;4.462;2023-06-22T05:12:02;17.10;99.90
12833;DHT22;6483;51.310;4.462;2023-06-22T05:14:30;17.20;99.90
12833;DHT22;6483;51.310;4.462;2023-06-22T05:16:56;17.30;99.90
12833;DHT22;6483;51.310;4.462;2023-06-22T05:19:24;17.40;99.90
12833;DHT22;6483;51.310;4.462;2023-06-22T05:21:52;17.60;99.90
12833;DHT22;6483;51.310;4.462;2023-06-22T05:24:17;17.80;99.90
12833;DHT22;6483;51.310;4.462;2023-06-22T05:26:46;18.00;99.90
12833;DHT22;6483;51.310;4.462;2023-06-22T05:29:37;18.30;99.90
12833;DHT22;6483;51.310;4.462;2023-06-22T05:32:03;18.60;99.90
12833;DHT22;6483;51.310;4.462;2023-06-22T05:34:29;19.00;99.90
12833;DHT22;6483;51.310;4.462;2023-06-22T05:36:55;19.20;99.90
12833;DHT22;6483;51.310;4.462;2023-06-22T05:39:21;19.50;99.90
12833;DHT22;6483;51.310;4.462;2023-06-22T05:41:47;19.70;99.90
12833;DHT22;6483;51.310;4.462;2023-06-22T05:44:13;19.90;99.90
12833;DHT22;6483;51.310;4.462;2023-06-22T05:46:43;20.20;99.90
12833;DHT22;6483;51.310;4.462;2023-06-22T05:49:11;20.40;99.90
12833;DHT22;6483;51.310;4.462;2023-06-22T05:51:36;20.70;99.90
12833;DHT22;6483;51.310;4.462;2023-06-22T05:54:02;20.80;99.90
12833;DHT22;6483;51.310;4.462;2023-06-22T05:56:31;21.00;99.90
12833;DHT22;6483;51.310;4.462;2023-06-22T05:59:15;21.20;99.90
12833;DHT22;6483;51.310;4.462;2023-06-22T06:01:40;21.30;99.90
12833;DHT22;6483;51.310;4.462;2023-06-22T06:04:06;21.60;99.90
12833;DHT22;6483;51.310;4.462;2023-06-22T06:06:37;21.70;99.90
12833;DHT22;6483;51.310;4.462;2023-06-22T06:09:04;21.70;99.90
12833;DHT22;6483;51.310;4.462;2023-06-22T06:11:30;21.80;99.90
12833;DHT22;6483;51.310;4.462;2023-06-22T06:13:55;22.00;99.90
12833;DHT22;6483;51.310;4.462;2023-06-22T06:16:24;22.20;99.90
12833;DHT22;6483;51.310;4.462;2023-06-22T06:18:50;22.30;99.90
12833;DHT22;6483;51.310;4.462;2023-06-22T06:21:16;22.40;99.90
12833;DHT22;6483;51.310;4.462;2023-06-22T06:23:42;22.60;99.90
12833;DHT22;6483;51.310;4.462;2023-06-22T06:26:08;22.60;99.90
12833;DHT22;6483;51.310;4.462;2023-06-22T06:28:35;22.50;54.50
12833;DHT22;6483;51.310;4.462;2023-06-22T06:31:00;22.70;46.60
12833;DHT22;6483;51.310;4.462;2023-06-22T06:33:26;22.80;18.90
12833;DHT22;6483;51.310;4.462;2023-06-22T06:35:52;22.90;33.20
12833;DHT22;6483;51.310;4.462;2023-06-22T06:38:18;23.00;22.70
12833;DHT22;6483;51.310;4.462;2023-06-22T06:40:44;23.20;34.30
12833;DHT22;6483;51.310;4.462;2023-06-22T06:43:10;23.10;25.80
12833;DHT22;6483;51.310;4.462;2023-06-22T06:45:36;23.60;18.50
12833;DHT22;6483;51.310;4.462;2023-06-22T06:48:01;23.80;14.80
12833;DHT22;6483;51.310;4.462;2023-06-22T06:50:28;23.90;1.00
12833;DHT22;6483;51.310;4.462;2023-06-22T06:52:53;24.00;1.00
12833;DHT22;6483;51.310;4.462;2023-06-22T06:55:19;24.00;1.00
12833;DHT22;6483;51.310;4.462;2023-06-22T06:57:45;24.00;1.00
12833;DHT22;6483;51.310;4.462;2023-06-22T07:00:14;24.20;1.00
12833;DHT22;6483;51.310;4.462;2023-06-22T07:02:42;24.20;1.00
12833;DHT22;6483;51.310;4.462;2023-06-22T07:05:09;24.10;1.00
12833;DHT22;6483;51.310;4.462;2023-06-22T07:07:35;24.20;1.00
12833;DHT22;6483;51.310;4.462;2023-06-22T07:10:01;24.40;1.00
12833;DHT22;6483;51.310;4.462;2023-06-22T07:12:29;24.50;1.00
12833;DHT22;6483;51.310;4.462;2023-06-22T07:15:01;24.50;1.00
12833;DHT22;6483;51.310;4.462;2023-06-22T07:17:27;24.50;1.00
12833;DHT22;6483;51.310;4.462;2023-06-22T07:19:53;24.50;1.00
12833;DHT22;6483;51.310;4.462;2023-06-22T07:22:19;24.60;1.00
12833;DHT22;6483;51.310;4.462;2023-06-22T07:24:47;24.60;1.00
12833;DHT22;6483;51.310;4.462;2023-06-22T07:27:13;24.50;1.00
12833;DHT22;6483;51.310;4.462;2023-06-22T07:29:41;24.40;1.00
12833;DHT22;6483;51.310;4.462;2023-06-22T07:32:08;24.30;1.00
12833;DHT22;6483;51.310;4.462;2023-06-22T07:34:34;24.20;1.00
12833;DHT22;6483;51.310;4.462;2023-06-22T07:37:00;24.10;1.00
12833;DHT22;6483;51.310;4.462;2023-06-22T07:39:25;24.10;1.00
12833;DHT22;6483;51.310;4.462;2023-06-22T07:41:52;24.20;1.00
12833;DHT22;6483;51.310;4.462;2023-06-22T07:44:18;24.20;1.00
12833;DHT22;6483;51.310;4.462;2023-06-22T07:46:44;24.10;1.00
12833;DHT22;6483;51.310;4.462;2023-06-22T07:49:09;24.10;1.00
12833;DHT22;6483;51.310;4.462;2023-06-22T07:51:35;24.10;1.00
12833;DHT22;6483;51.310;4.462;2023-06-22T07:54:01;24.00;1.00
12833;DHT22;6483;51.310;4.462;2023-06-22T07:56:27;23.90;1.00
12833;DHT22;6483;51.310;4.462;2023-06-22T07:58:52;23.90;1.00
12833;DHT22;6483;51.310;4.462;2023-06-22T08:01:19;24.00;1.00
12833;DHT22;6483;51.310;4.462;2023-06-22T08:03:48;23.90;1.00
12833;DHT22;6483;51.310;4.462;2023-06-22T08:06:13;23.70;1.00
12833;DHT22;6483;51.310;4.462;2023-06-22T08:08:39;23.60;19.20
12833;DHT22;6483;51.310;4.462;2023-06-22T08:11:05;23.50;16.30
12833;DHT22;6483;51.310;4.462;2023-06-22T08:13:31;23.50;7.70
12833;DHT22;6483;51.310;4.462;2023-06-22T08:15:57;23.40;12.70
12833;DHT22;6483;51.310;4.462;2023-06-22T08:18:22;23.30;13.60
12833;DHT22;6483;51.310;4.462;2023-06-22T08:20:48;23.20;25.10
12833;DHT22;6483;51.310;4.462;2023-06-22T08:23:14;23.20;41.90
12833;DHT22;6483;51.310;4.462;2023-06-22T08:25:40;23.10;22.40
12833;DHT22;6483;51.310;4.462;2023-06-22T08:28:06;23.00;30.00
12833;DHT22;6483;51.310;4.462;2023-06-22T08:30:32;23.00;31.00
12833;DHT22;6483;51.310;4.462;2023-06-22T08:32:58;23.00;41.00
12833;DHT22;6483;51.310;4.462;2023-06-22T08:35:24;23.10;28.30
12833;DHT22;6483;51.310;4.462;2023-06-22T08:37:49;23.10;18.20
12833;DHT22;6483;51.310;4.462;2023-06-22T08:40:21;23.20;24.60
12833;DHT22;6483;51.310;4.462;2023-06-22T08:42:47;23.20;27.60
12833;DHT22;6483;51.310;4.462;2023-06-22T08:45:13;23.20;22.40
12833;DHT22;6483;51.310;4.462;2023-06-22T08:47:40;23.30;23.80
12833;DHT22;6483;51.310;4.462;2023-06-22T08:50:10;23.30;21.00
12833;DHT22;6483;51.310;4.462;2023-06-22T08:52:37;23.40;15.80
12833;DHT22;6483;51.310;4.462;2023-06-22T08:55:04;23.40;22.10
12833;DHT22;6483;51.310;4.462;2023-06-22T08:57:30;23.50;22.50
12833;DHT22;6483;51.310;4.462;2023-06-22T08:59:56;24.90;24.30
12833;DHT22;6483;51.310;4.462;2023-06-22T09:02:24;23.70;26.50
12833;DHT22;6483;51.310;4.462;2023-06-22T09:04:50;23.90;46.60
12833;DHT22;6483;51.310;4.462;2023-06-22T09:07:24;24.00;30.30
12833;DHT22;6483;51.310;4.462;2023-06-22T09:09:51;24.10;7.60
12833;DHT22;6483;51.310;4.462;2023-06-22T09:12:18;23.80;8.80
12833;DHT22;6483;51.310;4.462;2023-06-22T09:14:45;23.70;15.40
12833;DHT22;6483;51.310;4.462;2023-06-22T09:17:12;23.70;16.00
12833;DHT22;6483;51.310;4.462;2023-06-22T09:19:38;23.50;18.20
12833;DHT22;6483;51.310;4.462;2023-06-22T09:22:04;23.60;29.20
12833;DHT22;6483;51.310;4.462;2023-06-22T09:24:32;23.60;24.30
12833;DHT22;6483;51.310;4.462;2023-06-22T09:26:57;23.50;30.80
12833;DHT22;6483;51.310;4.462;2023-06-22T09:29:23;23.40;21.10
12833;DHT22;6483;51.310;4.462;2023-06-22T09:31:49;23.20;25.00
12833;DHT22;6483;51.310;4.462;2023-06-22T09:34:15;23.10;52.80
12833;DHT22;6483;51.310;4.462;2023-06-22T09:36:41;23.10;52.10
12833;DHT22;6483;51.310;4.462;2023-06-22T09:39:07;22.90;30.70
12833;DHT22;6483;51.310;4.462;2023-06-22T09:41:32;22.80;37.60
12833;DHT22;6483;51.310;4.462;2023-06-22T09:44:01;22.70;44.20
12833;DHT22;6483;51.310;4.462;2023-06-22T09:46:27;22.70;69.70
12833;DHT22;6483;51.310;4.462;2023-06-22T09:48:53;22.60;53.20
12833;DHT22;6483;51.310;4.462;2023-06-22T09:51:20;22.50;54.00
12833;DHT22;6483;51.310;4.462;2023-06-22T09:53:47;22.50;52.90
12833;DHT22;6483;51.310;4.462;2023-06-22T09:56:13;22.50;41.90
12833;DHT22;6483;51.310;4.462;2023-06-22T09:58:42;22.50;78.90
12833;DHT22;6483;51.310;4.462;2023-06-22T10:01:09;22.50;34.40
12833;DHT22;6483;51.310;4.462;2023-06-22T10:03:40;22.60;43.10
12833;DHT22;6483;51.310;4.462;2023-06-22T10:06:10;22.50;36.10
12833;DHT22;6483;51.310;4.462;2023-06-22T10:08:38;22.50;34.00
12833;DHT22;6483;51.310;4.462;2023-06-22T10:11:09;22.50;28.40
12833;DHT22;6483;51.310;4.462;2023-06-22T10:13:34;22.50;31.80
12833;DHT22;6483;51.310;4.462;2023-06-22T10:16:02;22.50;33.50
12833;DHT22;6483;51.310;4.462;2023-06-22T10:18:27;22.40;90.70
12833;DHT22;6483;51.310;4.462;2023-06-22T10:20:53;22.70;94.10
12833;DHT22;6483;51.310;4.462;2023-06-22T10:23:22;22.10;95.00
12833;DHT22;6483;51.310;4.462;2023-06-22T10:25:48;21.90;99.90
12833;DHT22;6483;51.310;4.462;2023-06-22T10:28:15;21.70;99.90
12833;DHT22;6483;51.310;4.462;2023-06-22T10:30:41;21.70;99.90
12833;DHT22;6483;51.310;4.462;2023-06-22T10:33:08;21.60;99.90
12833;DHT22;6483;51.310;4.462;2023-06-22T10:35:34;21.50;99.90
12833;DHT22;6483;51.310;4.462;2023-06-22T10:38:00;21.40;99.90
12833;DHT22;6483;51.310;4.462;2023-06-22T10:40:29;21.30;99.90
12833;DHT22;6483;51.310;4.462;2023-06-22T10:42:55;21.20;99.90
12833;DHT22;6483;51.310;4.462;2023-06-22T10:45:21;20.00;99.90
12833;DHT22;6483;51.310;4.462;2023-06-22T10:47:47;21.10;99.90
12833;DHT22;6483;51.310;4.462;2023-06-22T10:50:13;21.20;99.90
12833;DHT22;6483;51.310;4.462;2023-06-22T10:52:38;21.30;99.90
12833;DHT22;6483;51.310;4.462;2023-06-22T10:55:05;21.40;99.90
12833;DHT22;6483;51.310;4.462;2023-06-22T10:57:31;21.50;99.90
12833;DHT22;6483;51.310;4.462;2023-06-22T10:59:56;21.50;99.90
12833;DHT22;6483;51.310;4.462;2023-06-22T11:02:23;21.40;99.90
12833;DHT22;6483;51.310;4.462;2023-06-22T11:04:48;21.40;99.90
12833;DHT22;6483;51.310;4.462;2023-06-22T11:07:16;21.30;99.90
12833;DHT22;6483;51.310;4.462;2023-06-22T11:09:43;21.30;99.90
12833;DHT22;6483;51.310;4.462;2023-06-22T11:12:09;21.20;99.90
12833;DHT22;6483;51.310;4.462;2023-06-22T11:14:34;21.20;99.90
12833;DHT22;6483;51.310;4.462;2023-06-22T11:17:00;21.10;99.90
12833;DHT22;6483;51.310;4.462;2023-06-22T11:19:26;20.90;99.90
12833;DHT22;6483;51.310;4.462;2023-06-22T11:21:52;20.80;99.90
12833;DHT22;6483;51.310;4.462;2023-06-22T11:24:17;20.70;99.90
12833;DHT22;6483;51.310;4.462;2023-06-22T11:26:43;20.70;99.90
12833;DHT22;6483;51.310;4.462;2023-06-22T11:29:09;20.60;99.90
12833;DHT22;6483;51.310;4.462;2023-06-22T11:31:36;20.50;99.90
12833;DHT22;6483;51.310;4.462;2023-06-22T11:34:02;20.50;99.90
12833;DHT22;6483;51.310;4.462;2023-06-22T11:36:28;20.40;99.90
12833;DHT22;6483;51.310;4.462;2023-06-22T11:38:54;20.50;99.90
12833;DHT22;6483;51.310;4.462;2023-06-22T11:41:20;20.50;99.90
12833;DHT22;6483;51.310;4.462;2023-06-22T11:43:45;20.60;99.90
12833;DHT22;6483;51.310;4.462;2023-06-22T11:46:11;20.70;99.90
12833;DHT22;6483;51.310;4.462;2023-06-22T11:48:37;20.60;99.90
12833;DHT22;6483;51.310;4.462;2023-06-22T11:51:03;20.50;99.90
12833;DHT22;6483;51.310;4.462;2023-06-22T11:53:29;20.50;99.90
12833;DHT22;6483;51.310;4.462;2023-06-22T11:55:55;20.60;99.90
12833;DHT22;6483;51.310;4.462;2023-06-22T11:58:21;20.50;99.90
12833;DHT22;6483;51.310;4.462;2023-06-22T12:00:48;20.40;99.90
12833;DHT22;6483;51.310;4.462;2023-06-22T12:03:14;20.50;99.90
12833;DHT22;6483;51.310;4.462;2023-06-22T12:05:40;20.40;99.90
12833;DHT22;6483;51.310;4.462;2023-06-22T12:08:07;20.40;99.90
12833;DHT22;6483;51.310;4.462;2023-06-22T12:10:36;20.30;99.90
12833;DHT22;6483;51.310;4.462;2023-06-22T12:13:05;20.20;99.90
12833;DHT22;6483;51.310;4.462;2023-06-22T12:15:33;20.20;99.90
12833;DHT22;6483;51.310;4.462;2023-06-22T12:18:06;20.10;99.90
12833;DHT22;6483;51.310;4.462;2023-06-22T12:20:33;20.00;99.90
12833;DHT22;6483;51.310;4.462;2023-06-22T12:22:59;19.90;99.90
12833;DHT22;6483;51.310;4.462;2023-06-22T12:25:25;19.90;99.90
12833;DHT22;6483;51.310;4.462;2023-06-22T12:27:50;19.80;99.90
12833;DHT22;6483;51.310;4.462;2023-06-22T12:30:17;19.90;99.90
12833;DHT22;6483;51.310;4.462;2023-06-22T12:32:43;19.90;99.90
12833;DHT22;6483;51.310;4.462;2023-06-22T12:35:12;19.90;99.90
12833;DHT22;6483;51.310;4.462;2023-06-22T12:37:42;20.00;99.90
12833;DHT22;6483;51.310;4.462;2023-06-22T12:40:09;19.80;99.90
12833;DHT22;6483;51.310;4.462;2023-06-22T12:42:38;19.70;99.90
12833;DHT22;6483;51.310;4.462;2023-06-22T12:45:04;19.70;99.90
12833;DHT22;6483;51.310;4.462;2023-06-22T12:47:30;19.70;99.90
12833;DHT22;6483;51.310;4.462;2023-06-22T12:49:56;19.70;99.90
12833;DHT22;6483;51.310;4.462;2023-06-22T12:52:22;19.70;99.90
12833;DHT22;6483;51.310;4.462;2023-06-22T12:54:50;19.70;99.90
12833;DHT22;6483;51.310;4.462;2023-06-22T12:57:15;19.60;99.90
12833;DHT22;6483;51.310;4.462;2023-06-22T12:59:43;19.60;99.90
12833;DHT22;6483;51.310;4.462;2023-06-22T13:02:08;19.70;99.90
12833;DHT22;6483;51.310;4.462;2023-06-22T13:04:34;19.60;99.90
12833;DHT22;6483;51.310;4.462;2023-06-22T13:07:00;19.60;99.90
12833;DHT22;6483;51.310;4.462;2023-06-22T13:09:25;19.60;99.90
12833;DHT22;6483;51.310;4.462;2023-06-22T13:11:51;19.70;99.90
12833;DHT22;6483;51.310;4.462;2023-06-22T13:14:18;19.70;99.90
12833;DHT22;6483;51.310;4.462;2023-06-22T13:16:43;19.80;99.90
12833;DHT22;6483;51.310;4.462;2023-06-22T13:19:09;19.80;99.90
12833;DHT22;6483;51.310;4.462;2023-06-22T13:21:35;19.80;99.90
12833;DHT22;6483;51.310;4.462;2023-06-22T13:24:00;19.70;99.90
12833;DHT22;6483;51.310;4.462;2023-06-22T13:26:26;19.70;99.90
12833;DHT22;6483;51.310;4.462;2023-06-22T13:28:54;19.80;99.90
12833;DHT22;6483;51.310;4.462;2023-06-22T13:31:20;19.70;99.90
12833;DHT22;6483;51.310;4.462;2023-06-22T13:33:45;19.70;99.90
12833;DHT22;6483;51.310;4.462;2023-06-22T13:36:13;19.70;99.90
12833;DHT22;6483;51.310;4.462;2023-06-22T13:38:39;19.70;99.90
12833;DHT22;6483;51.310;4.462;2023-06-22T13:41:05;19.60;99.90
12833;DHT22;6483;51.310;4.462;2023-06-22T13:43:31;19.60;99.90
12833;DHT22;6483;51.310;4.462;2023-06-22T13:45:57;19.60;99.90
12833;DHT22;6483;51.310;4.462;2023-06-22T13:48:23;19.50;99.90
12833;DHT22;6483;51.310;4.462;2023-06-22T13:50:51;19.50;99.90
12833;DHT22;6483;51.310;4.462;2023-06-22T13:53:17;19.50;99.90
12833;DHT22;6483;51.310;4.462;2023-06-22T13:55:43;19.40;99.90
12833;DHT22;6483;51.310;4.462;2023-06-22T13:58:08;19.40;99.90
12833;DHT22;6483;51.310;4.462;2023-06-22T14:00:34;19.40;99.90
12833;DHT22;6483;51.310;4.462;2023-06-22T14:03:00;19.30;99.90
12833;DHT22;6483;51.310;4.462;2023-06-22T14:05:25;19.30;99.90
12833;DHT22;6483;51.310;4.462;2023-06-22T14:07:54;19.20;99.90
12833;DHT22;6483;51.310;4.462;2023-06-22T14:10:20;19.20;99.90
12833;DHT22;6483;51.310;4.462;2023-06-22T14:12:46;19.30;99.90
12833;DHT22;6483;51.310;4.462;2023-06-22T14:15:11;19.20;99.90
12833;DHT22;6483;51.310;4.462;2023-06-22T14:17:37;19.20;99.90
12833;DHT22;6483;51.310;4.462;2023-06-22T14:20:03;19.20;99.90
12833;DHT22;6483;51.310;4.462;2023-06-22T14:22:30;19.20;99.90
12833;DHT22;6483;51.310;4.462;2023-06-22T14:24:56;19.20;99.90
12833;DHT22;6483;51.310;4.462;2023-06-22T14:27:23;19.20;99.90
12833;DHT22;6483;51.310;4.462;2023-06-22T14:29:52;19.20;99.90
12833;DHT22;6483;51.310;4.462;2023-06-22T14:32:17;19.20;99.90
12833;DHT22;6483;51.310;4.462;2023-06-22T14:34:44;19.30;99.90
12833;DHT22;6483;51.310;4.462;2023-06-22T14:37:13;19.30;99.90
12833;DHT22;6483;51.310;4.462;2023-06-22T14:39:42;19.30;99.90
12833;DHT22;6483;51.310;4.462;2023-06-22T14:42:08;19.20;99.90
12833;DHT22;6483;51.310;4.462;2023-06-22T14:44:34;19.30;99.90
12833;DHT22;6483;51.310;4.462;2023-06-22T14:47:03;19.20;99.90
12833;DHT22;6483;51.310;4.462;2023-06-22T14:49:29;19.30;99.90
12833;DHT22;6483;51.310;4.462;2023-06-22T14:51:57;19.30;99.90
12833;DHT22;6483;51.310;4.462;2023-06-22T14:54:23;19.30;99.90
12833;DHT22;6483;51.310;4.462;2023-06-22T14:56:50;19.30;99.90
12833;DHT22;6483;51.310;4.462;2023-06-22T14:59:16;19.30;99.90
12833;DHT22;6483;51.310;4.462;2023-06-22T15:01:42;19.30;99.90
12833;DHT22;6483;51.310;4.462;2023-06-22T15:04:08;19.40;99.90
12833;DHT22;6483;51.310;4.462;2023-06-22T15:06:33;19.40;99.90
12833;DHT22;6483;51.310;4.462;2023-06-22T15:09:02;19.30;99.90
12833;DHT22;6483;51.310;4.462;2023-06-22T15:11:30;19.30;99.90
12833;DHT22;6483;51.310;4.462;2023-06-22T15:13:58;19.30;99.90
12833;DHT22;6483;51.310;4.462;2023-06-22T15:16:25;19.30;99.90
12833;DHT22;6483;51.310;4.462;2023-06-22T15:18:51;19.20;99.90
12833;DHT22;6483;51.310;4.462;2023-06-22T15:21:17;19.30;99.90
12833;DHT22;6483;51.310;4.462;2023-06-22T15:23:43;19.30;99.90
12833;DHT22;6483;51.310;4.462;2023-06-22T15:26:08;19.40;99.90
12833;DHT22;6483;51.310;4.462;2023-06-22T15:28:34;19.30;99.90
12833;DHT22;6483;51.310;4.462;2023-06-22T15:31:05;19.30;99.90
12833;DHT22;6483;51.310;4.462;2023-06-22T15:33:32;19.40;99.90
12833;DHT22;6483;51.310;4.462;2023-06-22T15:36:01;19.40;99.90
12833;DHT22;6483;51.310;4.462;2023-06-22T15:38:29;19.40;99.90
12833;DHT22;6483;51.310;4.462;2023-06-22T15:40:56;19.40;99.90
12833;DHT22;6483;51.310;4.462;2023-06-22T15:43:21;19.50;99.90
12833;DHT22;6483;51.310;4.462;2023-06-22T15:45:47;19.50;99.90
12833;DHT22;6483;51.310;4.462;2023-06-22T15:48:14;19.50;99.90
12833;DHT22;6483;51.310;4.462;2023-06-22T15:50:40;19.50;99.90
12833;DHT22;6483;51.310;4.462;2023-06-22T15:53:06;19.50;99.90
12833;DHT22;6483;51.310;4.462;2023-06-22T15:55:35;19.50;99.90
12833;DHT22;6483;51.310;4.462;2023-06-22T15:58:00;19.60;99.90
12833;DHT22;6483;51.310;4.462;2023-06-22T16:00:27;19.60;99.90
12833;DHT22;6483;51.310;4.462;2023-06-22T16:02:52;19.80;99.90
12833;DHT22;6483;51.310;4.462;2023-06-22T16:05:18;19.70;99.90
12833;DHT22;6483;51.310;4.462;2023-06-22T16:07:44;19.70;99.90
12833;DHT22;6483;51.310;4.462;2023-06-22T16:10:09;19.70;99.90
12833;DHT22;6483;51.310;4.462;2023-06-22T16:12:41;19.70;99.90
12833;DHT22;6483;51.310;4.462;2023-06-22T16:15:07;19.70;99.90
12833;DHT22;6483;51.310;4.462;2023-06-22T16:17:32;19.80;99.90
12833;DHT22;6483;51.310;4.462;2023-06-22T16:20:07;19.80;99.90
12833;DHT22;6483;51.310;4.462;2023-06-22T16:22:34;19.80;99.90
12833;DHT22;6483;51.310;4.462;2023-06-22T16:25:00;19.90;99.90
12833;DHT22;6483;51.310;4.462;2023-06-22T16:27:29;19.90;99.90
12833;DHT22;6483;51.310;4.462;2023-06-22T16:29:55;19.90;99.90
12833;DHT22;6483;51.310;4.462;2023-06-22T16:32:20;20.00;99.90
12833;DHT22;6483;51.310;4.462;2023-06-22T16:34:46;20.00;99.90
12833;DHT22;6483;51.310;4.462;2023-06-22T16:37:12;20.00;99.90
12833;DHT22;6483;51.310;4.462;2023-06-22T16:39:44;20.10;99.90
12833;DHT22;6483;51.310;4.462;2023-06-22T16:42:13;20.10;99.90
12833;DHT22;6483;51.310;4.462;2023-06-22T16:44:45;20.10;99.90
12833;DHT22;6483;51.310;4.462;2023-06-22T16:47:11;20.20;99.90
12833;DHT22;6483;51.310;4.462;2023-06-22T16:49:40;20.20;99.90
12833;DHT22;6483;51.310;4.462;2023-06-22T16:52:10;20.20;99.90
12833;DHT22;6483;51.310;4.462;2023-06-22T16:54:40;20.00;99.90
12833;DHT22;6483;51.310;4.462;2023-06-22T16:57:11;19.90;99.90
12833;DHT22;6483;51.310;4.462;2023-06-22T16:59:40;19.90;99.90
12833;DHT22;6483;51.310;4.462;2023-06-22T17:02:11;19.90;99.90
12833;DHT22;6483;51.310;4.462;2023-06-22T17:04:38;19.90;99.90
12833;DHT22;6483;51.310;4.462;2023-06-22T17:07:26;20.00;99.90
12833;DHT22;6483;51.310;4.462;2023-06-22T17:09:53;20.00;99.90
12833;DHT22;6483;51.310;4.462;2023-06-22T17:12:20;20.10;99.90
12833;DHT22;6483;51.310;4.462;2023-06-22T17:14:50;20.10;99.90
12833;DHT22;6483;51.310;4.462;2023-06-22T17:17:17;20.10;99.90
12833;DHT22;6483;51.310;4.462;2023-06-22T17:19:46;20.10;99.90
12833;DHT22;6483;51.310;4.462;2023-06-22T17:22:13;20.20;99.90
12833;DHT22;6483;51.310;4.462;2023-06-22T17:24:43;20.20;99.90
12833;DHT22;6483;51.310;4.462;2023-06-22T17:27:09;20.10;99.90
12833;DHT22;6483;51.310;4.462;2023-06-22T17:29:35;20.10;99.90
12833;DHT22;6483;51.310;4.462;2023-06-22T17:32:02;20.00;99.90
12833;DHT22;6483;51.310;4.462;2023-06-22T17:34:29;20.00;99.90
12833;DHT22;6483;51.310;4.462;2023-06-22T17:36:56;20.00;99.90
12833;DHT22;6483;51.310;4.462;2023-06-22T17:39:27;20.00;99.90
12833;DHT22;6483;51.310;4.462;2023-06-22T17:41:56;20.00;99.90
12833;DHT22;6483;51.310;4.462;2023-06-22T17:44:26;20.00;99.90
12833;DHT22;6483;51.310;4.462;2023-06-22T17:46:57;20.00;99.90
12833;DHT22;6483;51.310;4.462;2023-06-22T17:49:30;19.90;99.90
12833;DHT22;6483;51.310;4.462;2023-06-22T17:52:00;19.90;99.90
12833;DHT22;6483;51.310;4.462;2023-06-22T17:54:31;19.90;99.90
12833;DHT22;6483;51.310;4.462;2023-06-22T17:57:00;20.00;99.90
12833;DHT22;6483;51.310;4.462;2023-06-22T17:59:32;20.00;99.90
12833;DHT22;6483;51.310;4.462;2023-06-22T18:02:11;20.10;99.90
12833;DHT22;6483;51.310;4.462;2023-06-22T18:04:37;20.00;99.90
12833;DHT22;6483;51.310;4.462;2023-06-22T18:07:03;20.00;99.90
12833;DHT22;6483;51.310;4.462;2023-06-22T18:09:31;19.90;99.90
12833;DHT22;6483;51.310;4.462;2023-06-22T18:11:59;19.90;99.90
12833;DHT22;6483;51.310;4.462;2023-06-22T18:14:28;19.90;99.90
12833;DHT22;6483;51.310;4.462;2023-06-22T18:16:55;19.90;99.90
12833;DHT22;6483;51.310;4.462;2023-06-22T18:19:22;20.00;99.90
12833;DHT22;6483;51.310;4.462;2023-06-22T18:21:49;20.00;99.90
12833;DHT22;6483;51.310;4.462;2023-06-22T18:24:19;20.00;99.90
12833;DHT22;6483;51.310;4.462;2023-06-22T18:26:49;20.00;99.90
12833;DHT22;6483;51.310;4.462;2023-06-22T18:29:15;19.90;99.90
12833;DHT22;6483;51.310;4.462;2023-06-22T18:31:42;19.80;99.90
12833;DHT22;6483;51.310;4.462;2023-06-22T18:34:09;19.80;99.90
12833;DHT22;6483;51.310;4.462;2023-06-22T18:36:54;19.70;99.90
12833;DHT22;6483;51.310;4.462;2023-06-22T18:39:21;19.80;99.90
12833;DHT22;6483;51.310;4.462;2023-06-22T18:41:51;19.80;99.90
12833;DHT22;6483;51.310;4.462;2023-06-22T18:46:57;19.80;99.90
12833;DHT22;6483;51.310;4.462;2023-06-22T18:49:25;19.80;99.90
12833;DHT22;6483;51.310;4.462;2023-06-22T18:52:12;19.80;99.90
12833;DHT22;6483;51.310;4.462;2023-06-22T18:54:46;19.80;99.90
12833;DHT22;6483;51.310;4.462;2023-06-22T18:57:30;19.70;99.90
12833;DHT22;6483;51.310;4.462;2023-06-22T19:00:00;19.70;99.90
12833;DHT22;6483;51.310;4.462;2023-06-22T19:07:56;19.80;99.90
12833;DHT22;6483;51.310;4.462;2023-06-22T19:13:27;19.70;99.90
12833;DHT22;6483;51.310;4.462;2023-06-22T19:18:23;19.80;99.90
12833;DHT22;6483;51.310;4.462;2023-06-22T19:21:08;19.80;99.90
12833;DHT22;6483;51.310;4.462;2023-06-22T19:23:35;19.70;99.90
12833;DHT22;6483;51.310;4.462;2023-06-22T19:26:06;19.70;99.90
12833;DHT22;6483;51.310;4.462;2023-06-22T19:28:33;19.60;99.90
12833;DHT22;6483;51.310;4.462;2023-06-22T19:31:01;19.60;99.90
12833;DHT22;6483;51.310;4.462;2023-06-22T19:33:30;19.50;99.90
12833;DHT22;6483;51.310;4.462;2023-06-22T19:36:00;19.50;99.90
12833;DHT22;6483;51.310;4.462;2023-06-22T19:38:28;19.40;99.90
12833;DHT22;6483;51.310;4.462;2023-06-22T19:40:55;19.40;99.90
12833;DHT22;6483;51.310;4.462;2023-06-22T19:43:41;19.30;99.90
12833;DHT22;6483;51.310;4.462;2023-06-22T19:46:07;19.30;99.90
12833;DHT22;6483;51.310;4.462;2023-06-22T19:48:34;19.30;99.90
12833;DHT22;6483;51.310;4.462;2023-06-22T19:51:05;19.30;99.90
12833;DHT22;6483;51.310;4.462;2023-06-22T19:53:43;19.30;99.90
12833;DHT22;6483;51.310;4.462;2023-06-22T19:56:09;19.20;99.90
12833;DHT22;6483;51.310;4.462;2023-06-22T19:58:35;19.20;99.90
12833;DHT22;6483;51.310;4.462;2023-06-22T20:01:06;19.20;99.90
12833;DHT22;6483;51.310;4.462;2023-06-22T20:03:42;19.10;99.90
12833;DHT22;6483;51.310;4.462;2023-06-22T20:06:14;19.10;99.90
12833;DHT22;6483;51.310;4.462;2023-06-22T20:09:05;19.10;99.90
12833;DHT22;6483;51.310;4.462;2023-06-22T20:11:33;19.10;99.90
12833;DHT22;6483;51.310;4.462;2023-06-22T20:14:02;19.10;99.90
12833;DHT22;6483;51.310;4.462;2023-06-22T20:16:29;19.10;99.90
12833;DHT22;6483;51.310;4.462;2023-06-22T20:19:11;19.10;99.90
12833;DHT22;6483;51.310;4.462;2023-06-22T20:21:41;19.10;99.90
12833;DHT22;6483;51.310;4.462;2023-06-22T20:24:11;19.00;99.90
12833;DHT22;6483;51.310;4.462;2023-06-22T20:26:42;19.00;99.90
12833;DHT22;6483;51.310;4.462;2023-06-22T20:29:34;19.00;99.90
12833;DHT22;6483;51.310;4.462;2023-06-22T20:34:50;18.80;99.90
12833;DHT22;6483;51.310;4.462;2023-06-22T20:37:18;18.70;99.90
12833;DHT22;6483;51.310;4.462;2023-06-22T20:39:44;18.70;99.90